createdAt,value
2023-02-11T00:01:42.714Z,63.73
2023-02-11T00:04:14.498Z,63.89
2023-02-11T00:06:46.193Z,63.86
2023-02-11T00:09:17.882Z,63.81
2023-02-11T00:11:51.900Z,64.39
2023-02-11T00:14:26.198Z,64.18
2023-02-11T00:16:57.963Z,64.15
2023-02-11T00:19:29.660Z,64.93
2023-02-11T00:22:01.337Z,64.39
2023-02-11T00:24:33.002Z,64.13
2023-02-11T00:27:04.744Z,64.03
2023-02-11T00:29:37.667Z,64.27
2023-02-11T00:32:10.516Z,64.21
2023-02-11T00:34:42.208Z,64.07
2023-02-11T00:37:16.801Z,63.66
2023-02-11T00:39:50.165Z,64.14
2023-02-11T00:42:21.932Z,63.60
2023-02-11T00:44:55.748Z,64.11
2023-02-11T00:47:27.753Z,64.09
2023-02-11T00:50:01.020Z,63.94
2023-02-11T00:52:33.075Z,63.66
2023-02-11T00:55:05.033Z,63.83
2023-02-11T00:57:37.923Z,63.71
2023-02-11T01:00:11.543Z,63.77
2023-02-11T01:02:43.208Z,63.81
2023-02-11T01:05:15.438Z,63.89
2023-02-11T01:07:47.216Z,63.65
2023-02-11T01:10:19.122Z,63.57
2023-02-11T01:12:52.220Z,63.73
2023-02-11T01:15:24.310Z,63.95
2023-02-11T01:17:56.081Z,64.02
2023-02-11T01:20:31.117Z,63.81
2023-02-11T01:23:02.820Z,64.08
2023-02-11T01:25:34.445Z,63.85
2023-02-11T01:28:19.306Z,63.80
2023-02-11T01:30:51.544Z,63.61
2023-02-11T01:33:23.887Z,63.60
2023-02-11T01:35:55.686Z,63.92
2023-02-11T01:38:27.386Z,64.01
2023-02-11T01:41:05.491Z,64.15
2023-02-11T01:43:43.032Z,63.77
2023-02-11T01:46:29.064Z,63.87
2023-02-11T01:49:09.660Z,64.14
2023-02-11T01:51:50.117Z,63.75
2023-02-11T01:54:44.780Z,63.76
2023-02-11T01:57:22.314Z,63.60
2023-02-11T02:00:07.373Z,63.98
2023-02-11T02:02:57.277Z,63.70
2023-02-11T02:05:46.961Z,63.61
2023-02-11T02:08:29.502Z,63.74
2023-02-11T02:11:01.331Z,63.65
2023-02-11T02:13:36.120Z,63.99
2023-02-11T02:16:11.789Z,64.39
2023-02-11T02:19:01.768Z,63.95
2023-02-11T02:21:36.458Z,64.01
2023-02-11T02:24:29.126Z,63.97
2023-02-11T02:27:22.480Z,63.64
2023-02-11T02:30:26.700Z,63.59
2023-02-11T02:33:22.675Z,63.86
2023-02-11T02:36:09.716Z,63.73
2023-02-11T02:38:50.944Z,64.09
2023-02-11T02:41:29.128Z,63.65
2023-02-11T02:44:01.303Z,64.07
2023-02-11T02:46:34.873Z,63.98
2023-02-11T02:49:11.024Z,63.57
2023-02-11T02:52:05.220Z,63.50
2023-02-11T02:54:58.541Z,64.07
2023-02-11T02:57:46.587Z,64.08
2023-02-11T03:00:31.716Z,63.75
2023-02-11T03:03:20.933Z,64.20
2023-02-11T03:06:04.341Z,63.98
2023-02-11T03:08:51.304Z,64.13
2023-02-11T03:11:24.425Z,63.81
2023-02-11T03:13:57.924Z,63.60
2023-02-11T03:16:31.027Z,63.65
2023-02-11T03:19:16.773Z,63.27
2023-02-11T03:21:51.943Z,63.40
2023-02-11T03:24:38.621Z,63.56
2023-02-11T03:27:18.469Z,63.31
2023-02-11T03:29:58.269Z,63.21
2023-02-11T03:32:38.989Z,63.41
2023-02-11T03:35:23.123Z,63.29
2023-02-11T03:37:59.823Z,62.79
2023-02-11T03:40:39.822Z,63.21
2023-02-11T03:43:23.186Z,62.84
2023-02-11T03:45:56.670Z,62.97
2023-02-11T03:48:37.962Z,63.10
2023-02-11T03:51:12.777Z,62.47
2023-02-11T03:53:46.574Z,62.06
2023-02-11T03:56:22.128Z,62.38
2023-02-11T03:58:53.823Z,62.27
2023-02-11T04:01:25.597Z,62.53
2023-02-11T04:03:57.381Z,61.95
2023-02-11T04:06:29.076Z,61.93
2023-02-11T04:09:00.789Z,61.85
2023-02-11T04:11:32.663Z,61.86
2023-02-11T04:14:04.771Z,62.14
2023-02-11T04:16:36.503Z,61.79
2023-02-11T04:19:08.336Z,62.06
2023-02-11T04:21:39.981Z,61.96
2023-02-11T04:24:11.714Z,62.23
2023-02-11T04:26:43.367Z,61.55
2023-02-11T04:29:18.362Z,62.06
2023-02-11T04:31:50.272Z,61.72
2023-02-11T04:34:22.127Z,62.17
2023-02-11T04:36:55.185Z,61.59
2023-02-11T04:39:26.934Z,62.39
2023-02-11T04:41:58.534Z,62.30
2023-02-11T04:44:30.451Z,62.29
2023-02-11T04:47:04.151Z,62.57
2023-02-11T04:49:35.922Z,62.48
2023-02-11T04:52:08.301Z,62.25
2023-02-11T04:54:40.673Z,62.15
2023-02-11T04:57:12.360Z,61.79
2023-02-11T04:59:44.198Z,62.36
2023-02-11T05:02:15.836Z,61.79
2023-02-11T05:04:47.678Z,62.24
2023-02-11T05:07:19.351Z,62.07
2023-02-11T05:09:50.993Z,61.53
2023-02-11T05:12:22.630Z,62.00
2023-02-11T05:14:54.325Z,61.97
2023-02-11T05:17:26.022Z,61.76
2023-02-11T05:19:57.784Z,62.08
2023-02-11T05:22:29.448Z,61.83
2023-02-11T05:25:01.140Z,61.61
2023-02-11T05:27:32.778Z,61.90
2023-02-11T05:30:06.088Z,62.00
2023-02-11T05:32:37.867Z,61.46
2023-02-11T05:35:09.677Z,61.85
2023-02-11T05:37:41.360Z,62.00
2023-02-11T05:40:13.100Z,61.42
2023-02-11T05:42:44.847Z,61.49
2023-02-11T05:45:16.586Z,61.32
2023-02-11T05:47:48.244Z,61.17
2023-02-11T05:50:20.423Z,61.49
2023-02-11T05:52:52.435Z,61.47
2023-02-11T05:55:24.193Z,61.72
2023-02-11T05:57:55.868Z,61.51
2023-02-11T06:00:30.284Z,61.97
2023-02-11T06:03:02.030Z,61.72
2023-02-11T06:05:33.856Z,62.30
2023-02-11T06:08:05.585Z,61.69
2023-02-11T06:10:37.918Z,61.46
2023-02-11T06:13:09.594Z,61.49
2023-02-11T06:15:41.302Z,61.56
2023-02-11T06:18:12.980Z,61.44
2023-02-11T06:20:44.641Z,61.56
2023-02-11T06:23:16.290Z,61.67
2023-02-11T06:25:48.026Z,61.82
2023-02-11T06:28:19.969Z,61.63
2023-02-11T06:30:51.717Z,61.29
2023-02-11T06:33:23.797Z,61.68
2023-02-11T06:35:58.380Z,61.48
2023-02-11T06:38:30.051Z,61.76
2023-02-11T06:41:01.708Z,61.04
2023-02-11T06:43:33.362Z,61.35
2023-02-11T06:46:05.176Z,61.11
2023-02-11T06:48:36.985Z,61.88
2023-02-11T06:51:11.356Z,61.79
2023-02-11T06:53:47.225Z,61.39
2023-02-11T06:56:21.513Z,61.44
2023-02-11T06:58:58.148Z,60.93
2023-02-11T07:01:29.937Z,61.70
2023-02-11T07:04:01.565Z,60.96
2023-02-11T07:06:33.309Z,61.83
2023-02-11T07:09:05.402Z,61.19
2023-02-11T07:11:37.069Z,61.55
2023-02-11T07:14:08.788Z,61.24
2023-02-11T07:16:40.616Z,61.04
2023-02-11T07:19:12.321Z,61.28
2023-02-11T07:21:44.019Z,60.93
2023-02-11T07:24:16.014Z,61.09
2023-02-11T07:26:47.702Z,60.89
2023-02-11T07:29:19.373Z,60.34
2023-02-11T07:31:51.115Z,61.02
2023-02-11T07:34:22.854Z,60.30
2023-02-11T07:36:54.647Z,60.42
2023-02-11T07:39:27.597Z,60.33
2023-02-11T07:42:00.103Z,60.12
2023-02-11T07:44:33.331Z,60.87
2023-02-11T07:47:05.098Z,60.98
2023-02-11T07:49:36.896Z,60.41
2023-02-11T07:52:08.607Z,60.79
2023-02-11T07:54:40.382Z,60.83
2023-02-11T07:57:12.134Z,59.93
2023-02-11T07:59:43.799Z,60.31
2023-02-11T08:02:15.549Z,59.87
2023-02-11T08:04:47.338Z,59.95
2023-02-11T08:07:19.782Z,60.04
2023-02-11T08:09:51.514Z,60.44
2023-02-11T08:12:23.242Z,59.85
2023-02-11T08:14:56.251Z,59.79
2023-02-11T08:17:27.935Z,59.92
2023-02-11T08:20:02.442Z,59.54
2023-02-11T08:22:35.015Z,59.69
2023-02-11T08:25:06.950Z,59.17
2023-02-11T08:27:38.801Z,59.45
2023-02-11T08:30:11.210Z,58.71
2023-02-11T08:32:42.895Z,59.02
2023-02-11T08:35:14.583Z,58.71
2023-02-11T08:37:46.285Z,58.93
2023-02-11T08:40:18.049Z,59.00
2023-02-11T08:42:49.728Z,58.70
2023-02-11T08:45:21.493Z,58.40
2023-02-11T08:47:53.258Z,58.63
2023-02-11T08:50:25.829Z,58.56
2023-02-11T08:52:57.549Z,58.21
2023-02-11T08:55:29.289Z,57.83
2023-02-11T08:58:00.981Z,57.60
2023-02-11T09:00:32.869Z,57.78
2023-02-11T09:03:04.752Z,58.17
2023-02-11T09:05:43.822Z,57.64
2023-02-11T09:08:16.217Z,58.13
2023-02-11T09:10:47.994Z,57.46
2023-02-11T09:13:19.716Z,57.40
2023-02-11T09:15:54.478Z,57.23
2023-02-11T09:18:26.796Z,56.90
2023-02-11T09:21:07.035Z,56.79
2023-02-11T09:23:38.935Z,56.83
2023-02-11T09:26:34.924Z,56.69
2023-02-11T09:29:07.014Z,55.63
2023-02-11T09:31:38.913Z,56.11
2023-02-11T09:34:12.269Z,56.34
2023-02-11T09:36:44.031Z,55.72
2023-02-11T09:39:17.511Z,55.89
2023-02-11T09:42:20.087Z,55.51
2023-02-11T09:44:52.495Z,55.05
2023-02-11T09:47:35.536Z,55.43
2023-02-11T09:50:12.474Z,54.96
2023-02-11T09:53:04.958Z,54.81
2023-02-11T09:55:44.990Z,54.20
2023-02-11T09:58:25.669Z,54.33
2023-02-11T10:01:17.164Z,53.53
2023-02-11T10:04:08.509Z,53.84
2023-02-11T10:06:50.679Z,54.24
2023-02-11T10:09:22.443Z,53.36
2023-02-11T10:12:48.234Z,53.27
2023-02-11T10:15:57.436Z,53.74
2023-02-11T10:18:52.206Z,54.20
2023-02-11T10:21:34.355Z,54.66
2023-02-11T10:24:12.581Z,54.95
2023-02-11T10:26:45.612Z,54.62
2023-02-11T10:29:38.573Z,55.45
2023-02-11T10:32:38.661Z,55.68
2023-02-11T10:35:22.028Z,58.68
2023-02-11T10:37:55.832Z,55.96
2023-02-11T10:40:29.752Z,56.02
2023-02-11T10:43:06.115Z,56.08
2023-02-11T10:45:48.654Z,56.38
2023-02-11T10:48:43.325Z,56.58
2023-02-11T10:51:15.067Z,57.01
2023-02-11T10:53:49.662Z,57.04
2023-02-11T10:56:27.831Z,56.72
2023-02-11T10:59:05.775Z,56.67
2023-02-11T11:01:50.181Z,56.95
2023-02-11T11:04:32.191Z,56.97
2023-02-11T11:07:22.902Z,57.42
2023-02-11T11:10:05.292Z,57.33
2023-02-11T11:12:45.931Z,57.18
2023-02-11T11:15:24.943Z,57.60
2023-02-11T11:18:24.588Z,57.54
2023-02-11T11:21:00.564Z,58.02
2023-02-11T11:23:34.648Z,58.20
2023-02-11T11:26:28.072Z,58.28
2023-02-11T11:29:10.597Z,58.18
2023-02-11T11:32:01.354Z,57.96
2023-02-11T11:34:37.251Z,58.38
2023-02-11T11:37:19.471Z,58.64
2023-02-11T11:40:04.082Z,58.46
2023-02-11T11:42:38.211Z,58.83
2023-02-11T11:45:16.096Z,58.65
2023-02-11T11:47:54.489Z,58.61
2023-02-11T11:50:38.418Z,58.70
2023-02-11T11:53:26.054Z,58.75
2023-02-11T11:56:05.012Z,58.79
2023-02-11T11:58:37.042Z,58.46
2023-02-11T12:01:20.031Z,58.76
2023-02-11T12:04:23.984Z,58.92
2023-02-11T12:07:07.894Z,58.75
2023-02-11T12:09:48.524Z,59.02
2023-02-11T12:12:34.463Z,59.20
2023-02-11T12:15:32.860Z,59.24
2023-02-11T12:18:35.335Z,58.50
2023-02-11T12:21:24.919Z,58.47
2023-02-11T12:24:10.171Z,58.83
2023-02-11T12:26:51.121Z,58.60
2023-02-11T12:29:25.573Z,58.83
2023-02-11T12:32:12.576Z,58.99
2023-02-11T12:34:53.175Z,59.01
2023-02-11T12:38:02.617Z,58.60
2023-02-11T12:41:15.205Z,59.18
2023-02-11T12:43:47.248Z,59.26
2023-02-11T12:46:24.951Z,59.25
2023-02-11T12:49:18.927Z,59.45
2023-02-11T12:51:59.422Z,59.82
2023-02-11T12:54:46.185Z,59.58
2023-02-11T12:57:26.579Z,60.02
2023-02-11T13:00:07.961Z,60.01
2023-02-11T13:02:55.061Z,60.08
2023-02-11T13:05:58.743Z,60.08
2023-02-11T13:08:44.480Z,59.90
2023-02-11T13:11:24.466Z,60.17
2023-02-11T13:14:04.045Z,60.00
2023-02-11T13:16:43.825Z,60.39
2023-02-11T13:19:31.232Z,60.09
2023-02-11T13:22:15.744Z,60.31
2023-02-11T13:25:00.350Z,59.57
2023-02-11T13:27:32.021Z,59.48
2023-02-11T13:30:26.980Z,59.66
2023-02-11T13:33:00.661Z,59.33
2023-02-11T13:35:35.338Z,59.06
2023-02-11T13:38:28.691Z,59.38
2023-02-11T13:41:13.752Z,59.08
2023-02-11T13:43:56.655Z,59.40
2023-02-11T13:46:30.660Z,59.45
2023-02-11T13:49:02.432Z,59.37
2023-02-11T13:51:42.299Z,59.36
2023-02-11T13:54:34.540Z,58.88
2023-02-11T13:57:21.773Z,59.14
2023-02-11T14:00:20.940Z,59.13
2023-02-11T14:03:29.669Z,59.04
2023-02-11T14:06:29.181Z,59.29
2023-02-11T14:09:00.795Z,59.03
2023-02-11T14:11:37.005Z,59.09
2023-02-11T14:14:16.577Z,59.36
2023-02-11T14:17:04.655Z,59.75
2023-02-11T14:19:43.678Z,59.35
2023-02-11T14:22:23.678Z,59.09
2023-02-11T14:24:55.287Z,59.24
2023-02-11T14:27:43.114Z,59.68
2023-02-11T14:30:34.038Z,59.99
2023-02-11T14:33:37.970Z,60.18
2023-02-11T14:36:23.102Z,60.04
2023-02-11T14:39:04.706Z,60.21
2023-02-11T14:41:42.268Z,59.84
2023-02-11T14:44:19.533Z,60.20
2023-02-11T14:46:53.470Z,60.59
2023-02-11T14:49:36.738Z,60.47
2023-02-11T14:52:14.081Z,60.47
2023-02-11T14:54:49.278Z,60.62
2023-02-11T14:57:20.999Z,60.62
2023-02-11T14:59:59.501Z,60.42
2023-02-11T15:02:38.644Z,60.44
2023-02-11T15:05:20.458Z,60.48
2023-02-11T15:07:55.804Z,60.48
2023-02-11T15:10:33.037Z,60.30
2023-02-11T15:13:08.174Z,60.94
2023-02-11T15:15:40.847Z,60.90
2023-02-11T15:18:24.620Z,61.27
2023-02-11T15:20:56.463Z,61.19
2023-02-11T15:23:30.543Z,61.22
2023-02-11T15:26:05.673Z,61.27
2023-02-11T15:28:37.345Z,61.88
2023-02-11T15:31:20.378Z,62.19
2023-02-11T15:33:52.973Z,61.84
2023-02-11T15:36:28.817Z,61.89
2023-02-11T15:39:30.502Z,61.73
2023-02-11T15:42:28.327Z,62.35
2023-02-11T15:45:15.370Z,62.00
2023-02-11T15:48:12.714Z,61.82
2023-02-11T15:50:52.358Z,62.14
2023-02-11T15:53:40.867Z,62.56
2023-02-11T15:56:12.784Z,62.25
2023-02-11T15:58:49.273Z,62.07
2023-02-11T16:01:33.152Z,62.63
2023-02-11T16:04:16.017Z,62.33
2023-02-11T16:06:50.037Z,62.84
2023-02-11T16:09:32.622Z,62.90
2023-02-11T16:12:27.233Z,62.65
2023-02-11T16:15:00.259Z,62.67
2023-02-11T16:17:31.927Z,62.61
2023-02-11T16:20:03.880Z,63.00
2023-02-11T16:22:38.137Z,62.57
2023-02-11T16:25:19.454Z,62.76
2023-02-11T16:27:54.788Z,62.52
2023-02-11T16:30:44.597Z,62.99
2023-02-11T16:33:16.382Z,62.94
2023-02-11T16:35:48.899Z,63.11
2023-02-11T16:38:21.244Z,63.25
2023-02-11T16:40:53.183Z,63.52
2023-02-11T16:43:25.139Z,62.93
2023-02-11T16:45:58.842Z,63.46
2023-02-11T16:48:32.264Z,62.95
2023-02-11T16:51:04.615Z,63.08
2023-02-11T16:53:36.319Z,63.29
2023-02-11T16:56:14.698Z,63.10
2023-02-11T16:58:46.475Z,63.48
2023-02-11T17:01:18.340Z,63.62
2023-02-11T17:03:50.219Z,63.13
2023-02-11T17:06:21.950Z,62.94
2023-02-11T17:08:53.792Z,63.19
2023-02-11T17:11:25.527Z,63.20
2023-02-11T17:13:57.194Z,62.96
2023-02-11T17:16:29.968Z,63.24
2023-02-11T17:19:02.286Z,63.30
2023-02-11T17:21:35.152Z,63.62
2023-02-11T17:24:07.080Z,63.43
2023-02-11T17:26:39.316Z,63.31
2023-02-11T17:29:16.389Z,63.68
2023-02-11T17:31:48.571Z,63.82
2023-02-11T17:34:21.963Z,63.22
2023-02-11T17:36:53.677Z,63.41
2023-02-11T17:39:25.905Z,63.73
2023-02-11T17:41:57.584Z,63.93
2023-02-11T17:44:29.249Z,63.38
2023-02-11T17:47:00.981Z,63.60
2023-02-11T17:49:33.227Z,63.09
2023-02-11T17:52:05.109Z,63.50
2023-02-11T17:54:38.082Z,63.71
2023-02-11T17:57:11.965Z,63.31
2023-02-11T17:59:43.646Z,64.03
2023-02-11T18:02:15.618Z,63.92
2023-02-11T18:04:47.372Z,63.90
2023-02-11T18:07:19.957Z,64.31
2023-02-11T18:09:52.032Z,64.14
2023-02-11T18:12:26.731Z,63.78
2023-02-11T18:14:58.465Z,63.83
2023-02-11T18:17:30.264Z,64.48
2023-02-11T18:20:03.560Z,64.42
2023-02-11T18:22:39.368Z,64.16
2023-02-11T18:25:16.119Z,64.27
2023-02-11T18:27:47.960Z,64.46
2023-02-11T18:30:20.600Z,64.23
2023-02-11T18:32:56.338Z,64.68
2023-02-11T18:35:28.044Z,64.74
2023-02-11T18:37:59.916Z,64.93
2023-02-11T18:40:31.611Z,64.79
2023-02-11T18:43:03.415Z,64.38
2023-02-11T18:45:35.329Z,64.32
2023-02-11T18:48:10.099Z,64.67
2023-02-11T18:50:43.290Z,64.99
2023-02-11T18:53:17.809Z,64.69
2023-02-11T18:55:49.931Z,64.99
2023-02-11T18:58:21.787Z,64.95
2023-02-11T19:00:53.809Z,64.29
2023-02-11T19:03:25.575Z,64.81
2023-02-11T19:05:57.207Z,64.94
2023-02-11T19:08:28.907Z,64.96
2023-02-11T19:11:00.747Z,65.14
2023-02-11T19:13:35.902Z,64.91
2023-02-11T19:16:11.330Z,64.96
2023-02-11T19:18:53.250Z,64.87
2023-02-11T19:21:28.125Z,65.30
2023-02-11T19:24:03.026Z,65.00
2023-02-11T19:26:35.218Z,65.17
2023-02-11T19:29:07.086Z,65.27
2023-02-11T19:31:39.244Z,64.80
2023-02-11T19:34:14.099Z,64.90
2023-02-11T19:36:46.107Z,65.28
2023-02-11T19:39:18.514Z,65.21
2023-02-11T19:41:50.313Z,65.15
2023-02-11T19:44:22.041Z,65.05
2023-02-11T19:46:54.780Z,65.53
2023-02-11T19:49:26.604Z,65.38
2023-02-11T19:51:58.642Z,65.52
2023-02-11T19:54:30.410Z,65.10
2023-02-11T19:57:02.173Z,65.56
2023-02-11T19:59:33.851Z,65.90
2023-02-11T20:02:05.491Z,65.62
2023-02-11T20:04:37.250Z,65.96
2023-02-11T20:07:08.960Z,66.10
2023-02-11T20:09:43.516Z,66.31
2023-02-11T20:12:15.232Z,66.20
2023-02-11T20:14:46.915Z,66.40
2023-02-11T20:17:18.535Z,67.26
2023-02-11T20:19:50.287Z,67.12
2023-02-11T20:22:21.951Z,67.65
2023-02-11T20:24:53.702Z,67.89
2023-02-11T20:27:29.012Z,68.70
2023-02-11T20:30:00.794Z,68.90
2023-02-11T20:32:37.882Z,68.61
2023-02-11T20:35:09.887Z,68.29
2023-02-11T20:37:44.039Z,68.70
2023-02-11T20:40:15.915Z,69.04
2023-02-11T20:42:48.617Z,68.62
2023-02-11T20:45:20.395Z,68.70
2023-02-11T20:47:52.062Z,68.51
2023-02-11T20:50:23.798Z,68.92
2023-02-11T20:52:55.430Z,68.11
2023-02-11T20:55:27.217Z,68.11
2023-02-11T20:57:58.928Z,68.13
2023-02-11T21:00:31.065Z,68.18
2023-02-11T21:03:04.217Z,68.85
2023-02-11T21:05:36.525Z,68.65
2023-02-11T21:08:11.545Z,68.23
2023-02-11T21:10:43.825Z,68.24
2023-02-11T21:13:15.522Z,68.06
2023-02-11T21:15:48.241Z,68.40
2023-02-11T21:18:19.921Z,68.14
2023-02-11T21:20:53.664Z,68.16
2023-02-11T21:23:26.083Z,68.35
2023-02-11T21:25:57.964Z,68.33
2023-02-11T21:28:29.795Z,68.07
2023-02-11T21:31:02.250Z,67.99
2023-02-11T21:33:34.600Z,68.78
2023-02-11T21:36:08.031Z,68.59
2023-02-11T21:38:39.732Z,68.55
2023-02-11T21:41:11.999Z,68.37
2023-02-11T21:43:43.922Z,68.84
2023-02-11T21:46:16.993Z,68.56
2023-02-11T21:48:49.426Z,68.61
2023-02-11T21:51:23.701Z,68.80
2023-02-11T21:54:02.929Z,68.71
2023-02-11T21:56:35.515Z,68.83
2023-02-11T21:59:07.246Z,68.85
2023-02-11T22:01:38.997Z,69.01
2023-02-11T22:04:10.837Z,68.75
2023-02-11T22:06:43.038Z,69.23
2023-02-11T22:09:14.762Z,69.27
2023-02-11T22:11:46.622Z,69.29
2023-02-11T22:14:19.138Z,68.69
2023-02-11T22:16:50.997Z,68.98
2023-02-11T22:19:24.066Z,69.35
2023-02-11T22:21:55.757Z,69.09
2023-02-11T22:24:29.035Z,69.56
2023-02-11T22:27:00.719Z,69.21
2023-02-11T22:29:32.503Z,69.23
2023-02-11T22:32:04.537Z,69.37
2023-02-11T22:34:36.635Z,70.18
2023-02-11T22:37:08.318Z,69.66
2023-02-11T22:39:40.068Z,69.66
2023-02-11T22:42:11.815Z,69.81
2023-02-11T22:44:43.539Z,69.85
2023-02-11T22:47:15.292Z,69.95
2023-02-11T22:49:47.008Z,70.62
2023-02-11T22:52:22.644Z,70.24
2023-02-11T22:54:55.187Z,70.36
2023-02-11T22:57:27.020Z,70.78
2023-02-11T22:59:58.690Z,70.39
2023-02-11T23:02:31.782Z,70.06
2023-02-11T23:05:03.896Z,69.87
2023-02-11T23:07:35.959Z,70.33
2023-02-11T23:10:08.405Z,69.80
2023-02-11T23:12:40.144Z,70.07
2023-02-11T23:15:11.866Z,70.11
2023-02-11T23:17:43.543Z,69.64
2023-02-11T23:20:15.360Z,70.07
2023-02-11T23:22:47.044Z,69.55
2023-02-11T23:25:18.737Z,69.51
2023-02-11T23:27:50.428Z,69.83
2023-02-11T23:30:22.178Z,69.98
2023-02-11T23:32:54.866Z,70.03
2023-02-11T23:35:26.580Z,69.97
2023-02-11T23:37:58.333Z,69.73
2023-02-11T23:40:30.168Z,70.32
2023-02-11T23:43:02.047Z,69.83
2023-02-11T23:45:33.795Z,69.85
2023-02-11T23:48:05.616Z,69.85
2023-02-11T23:50:39.660Z,69.77
2023-02-11T23:53:11.868Z,69.50
2023-02-11T23:55:45.427Z,69.92
2023-02-11T23:58:18.489Z,69.93
